sensor_id;sensor_type;location;lat;lon;timestamp;P1;durP1;ratioP1;P2;durP2;ratioP2
13432;SDS011;6789;47.678;9.158;2023-07-24T00:02:59;10.60;;;6.57;;
13432;SDS011;6789;47.678;9.158;2023-07-24T00:07:51;10.25;;;6.28;;
13432;SDS011;6789;47.678;9.158;2023-07-24T00:12:42;10.95;;;5.95;;
13432;SDS011;6789;47.678;9.158;2023-07-24T00:17:34;9.95;;;6.63;;
13432;SDS011;6789;47.678;9.158;2023-07-24T00:22:26;11.00;;;7.13;;
13432;SDS011;6789;47.678;9.158;2023-07-24T00:27:18;8.02;;;5.40;;
13432;SDS011;6789;47.678;9.158;2023-07-24T00:32:09;12.68;;;7.13;;
13432;SDS011;6789;47.678;9.158;2023-07-24T00:37:01;11.07;;;6.35;;
13432;SDS011;6789;47.678;9.158;2023-07-24T00:41:53;9.98;;;6.43;;
13432;SDS011;6789;47.678;9.158;2023-07-24T00:46:45;10.75;;;6.72;;
13432;SDS011;6789;47.678;9.158;2023-07-24T00:51:37;10.77;;;6.55;;
13432;SDS011;6789;47.678;9.158;2023-07-24T00:56:29;12.10;;;6.57;;
13432;SDS011;6789;47.678;9.158;2023-07-24T01:01:23;10.98;;;6.63;;
13432;SDS011;6789;47.678;9.158;2023-07-24T01:06:16;11.35;;;6.40;;
13432;SDS011;6789;47.678;9.158;2023-07-24T01:11:29;12.18;;;6.80;;
13432;SDS011;6789;47.678;9.158;2023-07-24T01:16:47;13.32;;;6.65;;
13432;SDS011;6789;47.678;9.158;2023-07-24T01:26:58;11.85;;;7.57;;
13432;SDS011;6789;47.678;9.158;2023-07-24T01:31:50;13.40;;;7.05;;
13432;SDS011;6789;47.678;9.158;2023-07-24T01:36:42;11.65;;;6.85;;
13432;SDS011;6789;47.678;9.158;2023-07-24T01:41:34;12.00;;;6.97;;
13432;SDS011;6789;47.678;9.158;2023-07-24T01:46:26;12.63;;;6.88;;
13432;SDS011;6789;47.678;9.158;2023-07-24T01:51:18;11.43;;;7.45;;
13432;SDS011;6789;47.678;9.158;2023-07-24T01:56:10;13.40;;;7.22;;
13432;SDS011;6789;47.678;9.158;2023-07-24T02:01:02;13.82;;;7.35;;
13432;SDS011;6789;47.678;9.158;2023-07-24T02:05:54;10.85;;;7.10;;
13432;SDS011;6789;47.678;9.158;2023-07-24T02:10:48;11.32;;;6.88;;
13432;SDS011;6789;47.678;9.158;2023-07-24T02:15:41;13.20;;;7.18;;
13432;SDS011;6789;47.678;9.158;2023-07-24T02:20:33;12.15;;;7.32;;
13432;SDS011;6789;47.678;9.158;2023-07-24T02:25:24;16.00;;;8.10;;
13432;SDS011;6789;47.678;9.158;2023-07-24T02:30:16;13.48;;;7.13;;
13432;SDS011;6789;47.678;9.158;2023-07-24T02:35:08;12.75;;;7.47;;
13432;SDS011;6789;47.678;9.158;2023-07-24T02:40:00;13.38;;;8.05;;
13432;SDS011;6789;47.678;9.158;2023-07-24T02:44:51;13.50;;;7.95;;
13432;SDS011;6789;47.678;9.158;2023-07-24T02:49:44;12.30;;;7.70;;
13432;SDS011;6789;47.678;9.158;2023-07-24T02:54:35;11.63;;;6.93;;
13432;SDS011;6789;47.678;9.158;2023-07-24T02:59:28;11.15;;;7.32;;
13432;SDS011;6789;47.678;9.158;2023-07-24T03:04:21;12.10;;;7.38;;
13432;SDS011;6789;47.678;9.158;2023-07-24T03:09:12;11.43;;;7.65;;
13432;SDS011;6789;47.678;9.158;2023-07-24T03:14:04;12.75;;;7.88;;
13432;SDS011;6789;47.678;9.158;2023-07-24T03:18:56;11.52;;;7.28;;
13432;SDS011;6789;47.678;9.158;2023-07-24T03:23:48;11.65;;;7.63;;
13432;SDS011;6789;47.678;9.158;2023-07-24T03:28:40;13.88;;;7.30;;
13432;SDS011;6789;47.678;9.158;2023-07-24T03:33:32;17.73;;;10.20;;
13432;SDS011;6789;47.678;9.158;2023-07-24T03:38:23;11.43;;;6.88;;
13432;SDS011;6789;47.678;9.158;2023-07-24T03:43:15;14.98;;;7.40;;
13432;SDS011;6789;47.678;9.158;2023-07-24T03:48:07;11.90;;;6.97;;
13432;SDS011;6789;47.678;9.158;2023-07-24T03:52:59;10.88;;;7.45;;
13432;SDS011;6789;47.678;9.158;2023-07-24T03:57:50;10.95;;;7.25;;
13432;SDS011;6789;47.678;9.158;2023-07-24T04:02:42;11.50;;;7.35;;
13432;SDS011;6789;47.678;9.158;2023-07-24T04:07:34;10.63;;;6.25;;
13432;SDS011;6789;47.678;9.158;2023-07-24T04:12:26;13.15;;;7.63;;
13432;SDS011;6789;47.678;9.158;2023-07-24T04:17:17;15.43;;;7.80;;
13432;SDS011;6789;47.678;9.158;2023-07-24T04:22:09;13.95;;;7.68;;
13432;SDS011;6789;47.678;9.158;2023-07-24T04:27:01;13.10;;;8.23;;
13432;SDS011;6789;47.678;9.158;2023-07-24T04:31:53;12.15;;;6.88;;
13432;SDS011;6789;47.678;9.158;2023-07-24T04:36:45;11.88;;;7.40;;
13432;SDS011;6789;47.678;9.158;2023-07-24T04:41:36;11.73;;;7.70;;
13432;SDS011;6789;47.678;9.158;2023-07-24T04:46:28;15.35;;;7.85;;
13432;SDS011;6789;47.678;9.158;2023-07-24T04:51:20;15.18;;;7.45;;
13432;SDS011;6789;47.678;9.158;2023-07-24T04:56:12;12.13;;;7.60;;
13432;SDS011;6789;47.678;9.158;2023-07-24T05:01:04;11.40;;;7.28;;
13432;SDS011;6789;47.678;9.158;2023-07-24T05:05:56;13.82;;;7.68;;
13432;SDS011;6789;47.678;9.158;2023-07-24T05:10:53;11.18;;;7.38;;
13432;SDS011;6789;47.678;9.158;2023-07-24T05:15:48;14.00;;;7.57;;
13432;SDS011;6789;47.678;9.158;2023-07-24T05:20:46;14.35;;;8.00;;
13432;SDS011;6789;47.678;9.158;2023-07-24T05:25:40;12.82;;;7.75;;
13432;SDS011;6789;47.678;9.158;2023-07-24T05:30:32;13.55;;;7.20;;
13432;SDS011;6789;47.678;9.158;2023-07-24T05:35:24;10.77;;;5.85;;
13432;SDS011;6789;47.678;9.158;2023-07-24T05:40:16;10.60;;;5.97;;
13432;SDS011;6789;47.678;9.158;2023-07-24T05:45:07;9.18;;;5.43;;
13432;SDS011;6789;47.678;9.158;2023-07-24T05:50:02;8.30;;;5.15;;
13432;SDS011;6789;47.678;9.158;2023-07-24T05:54:54;7.88;;;5.45;;
13432;SDS011;6789;47.678;9.158;2023-07-24T05:59:46;9.85;;;4.97;;
13432;SDS011;6789;47.678;9.158;2023-07-24T06:04:37;7.70;;;4.70;;
13432;SDS011;6789;47.678;9.158;2023-07-24T06:09:30;7.13;;;4.95;;
13432;SDS011;6789;47.678;9.158;2023-07-24T06:14:38;6.68;;;4.45;;
13432;SDS011;6789;47.678;9.158;2023-07-24T06:19:46;7.50;;;4.68;;
13432;SDS011;6789;47.678;9.158;2023-07-24T06:25:06;9.75;;;4.70;;
13432;SDS011;6789;47.678;9.158;2023-07-24T06:30:38;9.25;;;5.50;;
13432;SDS011;6789;47.678;9.158;2023-07-24T06:42:23;8.07;;;4.85;;
13432;SDS011;6789;47.678;9.158;2023-07-24T06:47:14;8.57;;;4.40;;
13432;SDS011;6789;47.678;9.158;2023-07-24T06:52:06;7.47;;;4.38;;
13432;SDS011;6789;47.678;9.158;2023-07-24T06:56:59;8.95;;;4.05;;
13432;SDS011;6789;47.678;9.158;2023-07-24T07:01:52;7.00;;;3.80;;
13432;SDS011;6789;47.678;9.158;2023-07-24T07:06:44;6.53;;;3.88;;
13432;SDS011;6789;47.678;9.158;2023-07-24T07:11:36;6.20;;;3.97;;
13432;SDS011;6789;47.678;9.158;2023-07-24T07:16:28;5.97;;;3.78;;
13432;SDS011;6789;47.678;9.158;2023-07-24T07:21:20;6.32;;;3.60;;
13432;SDS011;6789;47.678;9.158;2023-07-24T07:26:12;6.00;;;3.97;;
13432;SDS011;6789;47.678;9.158;2023-07-24T07:31:04;6.43;;;3.92;;
13432;SDS011;6789;47.678;9.158;2023-07-24T07:35:56;5.40;;;4.15;;
13432;SDS011;6789;47.678;9.158;2023-07-24T07:40:50;6.68;;;4.07;;
13432;SDS011;6789;47.678;9.158;2023-07-24T07:45:41;7.57;;;4.30;;
13432;SDS011;6789;47.678;9.158;2023-07-24T07:50:33;5.72;;;3.97;;
13432;SDS011;6789;47.678;9.158;2023-07-24T07:55:25;6.45;;;4.25;;
13432;SDS011;6789;47.678;9.158;2023-07-24T08:00:19;6.78;;;4.28;;
13432;SDS011;6789;47.678;9.158;2023-07-24T08:05:11;8.75;;;4.32;;
13432;SDS011;6789;47.678;9.158;2023-07-24T08:10:11;6.75;;;4.22;;
13432;SDS011;6789;47.678;9.158;2023-07-24T08:15:11;5.95;;;3.90;;
13432;SDS011;6789;47.678;9.158;2023-07-24T08:20:04;7.82;;;4.25;;
13432;SDS011;6789;47.678;9.158;2023-07-24T08:24:56;6.75;;;4.20;;
13432;SDS011;6789;47.678;9.158;2023-07-24T08:29:52;5.82;;;4.20;;
13432;SDS011;6789;47.678;9.158;2023-07-24T08:34:46;6.80;;;4.55;;
13432;SDS011;6789;47.678;9.158;2023-07-24T08:39:44;5.75;;;4.18;;
13432;SDS011;6789;47.678;9.158;2023-07-24T08:44:36;6.82;;;4.10;;
13432;SDS011;6789;47.678;9.158;2023-07-24T08:49:29;8.90;;;4.13;;
13432;SDS011;6789;47.678;9.158;2023-07-24T08:54:22;6.10;;;4.07;;
13432;SDS011;6789;47.678;9.158;2023-07-24T08:59:17;8.00;;;4.57;;
13432;SDS011;6789;47.678;9.158;2023-07-24T09:04:09;6.22;;;4.15;;
13432;SDS011;6789;47.678;9.158;2023-07-24T09:09:01;7.40;;;4.22;;
13432;SDS011;6789;47.678;9.158;2023-07-24T09:13:54;6.75;;;4.40;;
13432;SDS011;6789;47.678;9.158;2023-07-24T09:18:49;5.53;;;3.85;;
13432;SDS011;6789;47.678;9.158;2023-07-24T09:24:10;6.65;;;4.30;;
13432;SDS011;6789;47.678;9.158;2023-07-24T09:29:04;5.97;;;4.13;;
13432;SDS011;6789;47.678;9.158;2023-07-24T09:33:56;7.60;;;4.63;;
13432;SDS011;6789;47.678;9.158;2023-07-24T09:39:02;6.85;;;4.40;;
13432;SDS011;6789;47.678;9.158;2023-07-24T09:43:58;8.73;;;3.90;;
13432;SDS011;6789;47.678;9.158;2023-07-24T09:48:52;5.60;;;4.03;;
13432;SDS011;6789;47.678;9.158;2023-07-24T09:54:02;5.72;;;4.20;;
13432;SDS011;6789;47.678;9.158;2023-07-24T09:59:18;6.88;;;4.20;;
13432;SDS011;6789;47.678;9.158;2023-07-24T10:04:12;8.30;;;4.35;;
13432;SDS011;6789;47.678;9.158;2023-07-24T10:09:07;6.22;;;4.22;;
13432;SDS011;6789;47.678;9.158;2023-07-24T10:14:00;5.97;;;4.32;;
13432;SDS011;6789;47.678;9.158;2023-07-24T10:18:56;5.45;;;4.22;;
13432;SDS011;6789;47.678;9.158;2023-07-24T10:24:33;8.25;;;4.32;;
13432;SDS011;6789;47.678;9.158;2023-07-24T10:29:35;8.27;;;4.75;;
13432;SDS011;6789;47.678;9.158;2023-07-24T10:34:37;6.38;;;4.45;;
13432;SDS011;6789;47.678;9.158;2023-07-24T10:39:37;9.23;;;5.53;;
13432;SDS011;6789;47.678;9.158;2023-07-24T10:44:31;6.28;;;4.70;;
13432;SDS011;6789;47.678;9.158;2023-07-24T10:49:24;8.32;;;4.97;;
13432;SDS011;6789;47.678;9.158;2023-07-24T10:54:20;7.65;;;4.65;;
13432;SDS011;6789;47.678;9.158;2023-07-24T10:59:39;7.65;;;5.20;;
13432;SDS011;6789;47.678;9.158;2023-07-24T11:04:31;7.10;;;4.93;;
13432;SDS011;6789;47.678;9.158;2023-07-24T11:09:34;8.52;;;4.97;;
13432;SDS011;6789;47.678;9.158;2023-07-24T11:14:31;8.05;;;4.72;;
13432;SDS011;6789;47.678;9.158;2023-07-24T11:19:25;5.35;;;3.60;;
13432;SDS011;6789;47.678;9.158;2023-07-24T11:24:17;5.15;;;3.30;;
13432;SDS011;6789;47.678;9.158;2023-07-24T11:29:12;4.97;;;2.47;;
13432;SDS011;6789;47.678;9.158;2023-07-24T11:34:05;2.05;;;1.70;;
13432;SDS011;6789;47.678;9.158;2023-07-24T11:38:58;4.18;;;1.98;;
13432;SDS011;6789;47.678;9.158;2023-07-24T11:43:51;2.13;;;1.77;;
13432;SDS011;6789;47.678;9.158;2023-07-24T11:48:43;4.10;;;1.90;;
13432;SDS011;6789;47.678;9.158;2023-07-24T11:53:36;3.50;;;1.58;;
13432;SDS011;6789;47.678;9.158;2023-07-24T11:58:29;3.85;;;1.90;;
13432;SDS011;6789;47.678;9.158;2023-07-24T12:03:26;3.25;;;2.20;;
13432;SDS011;6789;47.678;9.158;2023-07-24T12:08:28;2.22;;;1.67;;
13432;SDS011;6789;47.678;9.158;2023-07-24T12:13:26;2.97;;;1.77;;
13432;SDS011;6789;47.678;9.158;2023-07-24T12:18:20;2.58;;;1.80;;
13432;SDS011;6789;47.678;9.158;2023-07-24T12:23:12;3.65;;;1.83;;
13432;SDS011;6789;47.678;9.158;2023-07-24T12:28:04;3.20;;;1.92;;
13432;SDS011;6789;47.678;9.158;2023-07-24T12:32:56;2.55;;;2.00;;
13432;SDS011;6789;47.678;9.158;2023-07-24T12:37:58;3.03;;;1.95;;
13432;SDS011;6789;47.678;9.158;2023-07-24T12:43:06;2.65;;;1.80;;
13432;SDS011;6789;47.678;9.158;2023-07-24T12:48:12;2.60;;;1.85;;
13432;SDS011;6789;47.678;9.158;2023-07-24T12:53:04;2.35;;;1.70;;
13432;SDS011;6789;47.678;9.158;2023-07-24T12:57:59;3.05;;;2.05;;
13432;SDS011;6789;47.678;9.158;2023-07-24T13:02:53;2.63;;;1.55;;
13432;SDS011;6789;47.678;9.158;2023-07-24T13:07:46;2.33;;;1.92;;
13432;SDS011;6789;47.678;9.158;2023-07-24T13:12:38;2.90;;;1.77;;
13432;SDS011;6789;47.678;9.158;2023-07-24T13:17:31;6.38;;;2.60;;
13432;SDS011;6789;47.678;9.158;2023-07-24T13:22:23;2.85;;;1.90;;
13432;SDS011;6789;47.678;9.158;2023-07-24T13:27:15;6.38;;;2.70;;
13432;SDS011;6789;47.678;9.158;2023-07-24T13:32:07;5.55;;;2.10;;
13432;SDS011;6789;47.678;9.158;2023-07-24T13:37:01;3.30;;;2.40;;
13432;SDS011;6789;47.678;9.158;2023-07-24T13:41:58;5.38;;;2.53;;
13432;SDS011;6789;47.678;9.158;2023-07-24T13:46:50;4.57;;;2.50;;
13432;SDS011;6789;47.678;9.158;2023-07-24T13:51:51;3.63;;;2.63;;
13432;SDS011;6789;47.678;9.158;2023-07-24T13:56:47;3.42;;;2.50;;
13432;SDS011;6789;47.678;9.158;2023-07-24T14:01:40;3.35;;;2.15;;
13432;SDS011;6789;47.678;9.158;2023-07-24T14:06:32;2.97;;;2.15;;
13432;SDS011;6789;47.678;9.158;2023-07-24T14:11:38;7.30;;;2.60;;
13432;SDS011;6789;47.678;9.158;2023-07-24T14:16:31;4.28;;;2.30;;
13432;SDS011;6789;47.678;9.158;2023-07-24T14:21:23;8.27;;;2.40;;
13432;SDS011;6789;47.678;9.158;2023-07-24T14:26:16;4.57;;;2.47;;
13432;SDS011;6789;47.678;9.158;2023-07-24T14:31:08;3.00;;;1.75;;
13432;SDS011;6789;47.678;9.158;2023-07-24T14:36:00;3.05;;;1.90;;
13432;SDS011;6789;47.678;9.158;2023-07-24T14:51:36;2.58;;;1.95;;
13432;SDS011;6789;47.678;9.158;2023-07-24T14:56:38;2.67;;;1.80;;
13432;SDS011;6789;47.678;9.158;2023-07-24T15:01:54;2.50;;;2.00;;
13432;SDS011;6789;47.678;9.158;2023-07-24T15:06:46;2.10;;;1.90;;
13432;SDS011;6789;47.678;9.158;2023-07-24T15:16:45;2.90;;;2.20;;
13432;SDS011;6789;47.678;9.158;2023-07-24T15:21:37;3.67;;;2.03;;
13432;SDS011;6789;47.678;9.158;2023-07-24T15:26:29;3.35;;;2.05;;
13432;SDS011;6789;47.678;9.158;2023-07-24T15:31:21;3.55;;;2.30;;
13432;SDS011;6789;47.678;9.158;2023-07-24T15:36:13;4.00;;;2.55;;
13432;SDS011;6789;47.678;9.158;2023-07-24T15:41:06;4.78;;;2.42;;
13432;SDS011;6789;47.678;9.158;2023-07-24T15:45:58;4.35;;;2.20;;
13432;SDS011;6789;47.678;9.158;2023-07-24T15:50:51;4.38;;;2.70;;
13432;SDS011;6789;47.678;9.158;2023-07-24T15:55:43;3.45;;;2.33;;
13432;SDS011;6789;47.678;9.158;2023-07-24T16:00:35;3.55;;;2.70;;
13432;SDS011;6789;47.678;9.158;2023-07-24T16:05:28;2.42;;;2.00;;
13432;SDS011;6789;47.678;9.158;2023-07-24T16:10:20;3.47;;;2.40;;
13432;SDS011;6789;47.678;9.158;2023-07-24T16:15:12;3.90;;;2.38;;
13432;SDS011;6789;47.678;9.158;2023-07-24T16:20:05;3.67;;;2.70;;
13432;SDS011;6789;47.678;9.158;2023-07-24T16:24:57;3.08;;;2.58;;
13432;SDS011;6789;47.678;9.158;2023-07-24T16:29:49;3.30;;;2.20;;
13432;SDS011;6789;47.678;9.158;2023-07-24T16:34:41;3.80;;;2.33;;
13432;SDS011;6789;47.678;9.158;2023-07-24T16:39:33;3.83;;;2.25;;
13432;SDS011;6789;47.678;9.158;2023-07-24T16:44:25;3.83;;;2.70;;
13432;SDS011;6789;47.678;9.158;2023-07-24T16:49:21;3.15;;;2.50;;
13432;SDS011;6789;47.678;9.158;2023-07-24T16:54:13;3.40;;;2.28;;
13432;SDS011;6789;47.678;9.158;2023-07-24T16:59:05;3.58;;;2.40;;
13432;SDS011;6789;47.678;9.158;2023-07-24T17:03:57;3.25;;;2.40;;
13432;SDS011;6789;47.678;9.158;2023-07-24T17:08:51;3.60;;;2.30;;
13432;SDS011;6789;47.678;9.158;2023-07-24T17:13:43;3.78;;;2.35;;
13432;SDS011;6789;47.678;9.158;2023-07-24T17:18:37;3.63;;;2.58;;
13432;SDS011;6789;47.678;9.158;2023-07-24T17:23:28;3.13;;;2.13;;
13432;SDS011;6789;47.678;9.158;2023-07-24T17:28:20;4.50;;;2.67;;
13432;SDS011;6789;47.678;9.158;2023-07-24T17:33:12;4.32;;;2.90;;
13432;SDS011;6789;47.678;9.158;2023-07-24T17:38:05;2.95;;;2.60;;
13432;SDS011;6789;47.678;9.158;2023-07-24T17:42:57;4.20;;;2.78;;
13432;SDS011;6789;47.678;9.158;2023-07-24T17:47:48;3.15;;;2.30;;
13432;SDS011;6789;47.678;9.158;2023-07-24T17:52:40;3.95;;;2.90;;
13432;SDS011;6789;47.678;9.158;2023-07-24T17:57:33;3.35;;;2.33;;
13432;SDS011;6789;47.678;9.158;2023-07-24T18:02:25;4.40;;;2.47;;
13432;SDS011;6789;47.678;9.158;2023-07-24T18:07:18;3.58;;;2.80;;
13432;SDS011;6789;47.678;9.158;2023-07-24T18:12:09;3.90;;;2.70;;
13432;SDS011;6789;47.678;9.158;2023-07-24T18:17:02;3.50;;;2.50;;
13432;SDS011;6789;47.678;9.158;2023-07-24T18:21:54;2.97;;;2.42;;
13432;SDS011;6789;47.678;9.158;2023-07-24T18:26:46;4.78;;;3.25;;
13432;SDS011;6789;47.678;9.158;2023-07-24T18:31:38;5.07;;;3.00;;
13432;SDS011;6789;47.678;9.158;2023-07-24T18:36:30;3.10;;;2.63;;
13432;SDS011;6789;47.678;9.158;2023-07-24T18:41:22;3.58;;;2.70;;
13432;SDS011;6789;47.678;9.158;2023-07-24T18:46:16;4.22;;;2.80;;
13432;SDS011;6789;47.678;9.158;2023-07-24T18:51:11;3.58;;;2.60;;
13432;SDS011;6789;47.678;9.158;2023-07-24T18:56:02;4.35;;;2.70;;
13432;SDS011;6789;47.678;9.158;2023-07-24T19:00:55;5.65;;;2.95;;
13432;SDS011;6789;47.678;9.158;2023-07-24T19:05:46;4.38;;;2.58;;
13432;SDS011;6789;47.678;9.158;2023-07-24T19:10:39;5.05;;;2.78;;
13432;SDS011;6789;47.678;9.158;2023-07-24T19:15:31;3.97;;;2.85;;
13432;SDS011;6789;47.678;9.158;2023-07-24T19:20:23;4.75;;;2.92;;
13432;SDS011;6789;47.678;9.158;2023-07-24T19:25:15;4.47;;;2.75;;
13432;SDS011;6789;47.678;9.158;2023-07-24T19:30:07;4.25;;;2.60;;
13432;SDS011;6789;47.678;9.158;2023-07-24T19:35:02;3.88;;;2.83;;
13432;SDS011;6789;47.678;9.158;2023-07-24T19:39:54;4.22;;;2.55;;
13432;SDS011;6789;47.678;9.158;2023-07-24T19:44:48;3.10;;;2.53;;
13432;SDS011;6789;47.678;9.158;2023-07-24T19:49:40;3.53;;;2.65;;
13432;SDS011;6789;47.678;9.158;2023-07-24T19:54:33;2.85;;;2.45;;
13432;SDS011;6789;47.678;9.158;2023-07-24T19:59:25;4.28;;;2.90;;
13432;SDS011;6789;47.678;9.158;2023-07-24T20:04:17;3.13;;;2.67;;
13432;SDS011;6789;47.678;9.158;2023-07-24T20:09:09;3.50;;;2.58;;
13432;SDS011;6789;47.678;9.158;2023-07-24T20:14:01;4.00;;;2.63;;
13432;SDS011;6789;47.678;9.158;2023-07-24T20:18:53;3.60;;;2.95;;
13432;SDS011;6789;47.678;9.158;2023-07-24T20:23:46;4.47;;;3.05;;
13432;SDS011;6789;47.678;9.158;2023-07-24T20:28:38;3.30;;;2.85;;
13432;SDS011;6789;47.678;9.158;2023-07-24T20:33:30;4.10;;;2.67;;
13432;SDS011;6789;47.678;9.158;2023-07-24T20:38:23;5.38;;;3.40;;
13432;SDS011;6789;47.678;9.158;2023-07-24T20:43:17;3.63;;;2.70;;
13432;SDS011;6789;47.678;9.158;2023-07-24T20:48:09;8.15;;;2.95;;
13432;SDS011;6789;47.678;9.158;2023-07-24T20:53:04;4.55;;;2.65;;
13432;SDS011;6789;47.678;9.158;2023-07-24T20:57:56;3.75;;;2.80;;
13432;SDS011;6789;47.678;9.158;2023-07-24T21:02:48;4.13;;;2.67;;
13432;SDS011;6789;47.678;9.158;2023-07-24T21:07:40;6.28;;;2.80;;
13432;SDS011;6789;47.678;9.158;2023-07-24T21:12:32;4.38;;;2.70;;
13432;SDS011;6789;47.678;9.158;2023-07-24T21:17:24;4.90;;;3.42;;
13432;SDS011;6789;47.678;9.158;2023-07-24T21:22:16;4.05;;;3.05;;
13432;SDS011;6789;47.678;9.158;2023-07-24T21:27:08;4.65;;;3.05;;
13432;SDS011;6789;47.678;9.158;2023-07-24T21:32:00;3.75;;;2.72;;
13432;SDS011;6789;47.678;9.158;2023-07-24T21:36:52;4.65;;;3.15;;
13432;SDS011;6789;47.678;9.158;2023-07-24T21:41:43;4.75;;;3.03;;
13432;SDS011;6789;47.678;9.158;2023-07-24T21:46:35;6.43;;;3.15;;
13432;SDS011;6789;47.678;9.158;2023-07-24T21:51:28;5.20;;;3.17;;
13432;SDS011;6789;47.678;9.158;2023-07-24T21:56:20;4.45;;;3.13;;
13432;SDS011;6789;47.678;9.158;2023-07-24T22:01:12;6.68;;;3.30;;
13432;SDS011;6789;47.678;9.158;2023-07-24T22:06:04;4.13;;;3.33;;
13432;SDS011;6789;47.678;9.158;2023-07-24T22:10:58;6.15;;;3.30;;
13432;SDS011;6789;47.678;9.158;2023-07-24T22:15:50;5.47;;;3.08;;
13432;SDS011;6789;47.678;9.158;2023-07-24T22:20:41;4.65;;;3.10;;
13432;SDS011;6789;47.678;9.158;2023-07-24T22:25:33;4.78;;;3.10;;
13432;SDS011;6789;47.678;9.158;2023-07-24T22:30:26;6.75;;;3.40;;
13432;SDS011;6789;47.678;9.158;2023-07-24T22:35:18;4.28;;;2.88;;
13432;SDS011;6789;47.678;9.158;2023-07-24T22:40:10;6.03;;;3.10;;
13432;SDS011;6789;47.678;9.158;2023-07-24T22:45:03;4.63;;;2.30;;
13432;SDS011;6789;47.678;9.158;2023-07-24T22:49:55;5.43;;;3.45;;
13432;SDS011;6789;47.678;9.158;2023-07-24T22:54:47;3.33;;;2.35;;
13432;SDS011;6789;47.678;9.158;2023-07-24T22:59:39;6.03;;;3.20;;
13432;SDS011;6789;47.678;9.158;2023-07-24T23:04:31;4.70;;;3.10;;
13432;SDS011;6789;47.678;9.158;2023-07-24T23:09:23;4.30;;;2.95;;
13432;SDS011;6789;47.678;9.158;2023-07-24T23:14:15;4.43;;;2.70;;
13432;SDS011;6789;47.678;9.158;2023-07-24T23:19:07;4.90;;;2.70;;
13432;SDS011;6789;47.678;9.158;2023-07-24T23:23:59;4.50;;;3.20;;
13432;SDS011;6789;47.678;9.158;2023-07-24T23:28:51;4.22;;;2.83;;
13432;SDS011;6789;47.678;9.158;2023-07-24T23:33:44;4.43;;;2.95;;
13432;SDS011;6789;47.678;9.158;2023-07-24T23:38:36;4.68;;;3.10;;
13432;SDS011;6789;47.678;9.158;2023-07-24T23:43:28;6.70;;;3.80;;
13432;SDS011;6789;47.678;9.158;2023-07-24T23:48:20;3.80;;;2.85;;
13432;SDS011;6789;47.678;9.158;2023-07-24T23:53:13;5.10;;;3.15;;
13432;SDS011;6789;47.678;9.158;2023-07-24T23:58:05;5.78;;;3.13;;
